sensor_id;sensor_type;location;lat;lon;timestamp;P1;durP1;ratioP1;P2;durP2;ratioP2
3274;SDS011;1649;53.672;10.064;2024-03-22T00:02:21;27.17;;;12.87;;
3274;SDS011;1649;53.672;10.064;2024-03-22T00:04:47;26.70;;;13.13;;
3274;SDS011;1649;53.672;10.064;2024-03-22T00:07:12;25.73;;;14.23;;
3274;SDS011;1649;53.672;10.064;2024-03-22T00:09:37;33.37;;;14.80;;
3274;SDS011;1649;53.672;10.064;2024-03-22T00:12:03;30.97;;;13.50;;
3274;SDS011;1649;53.672;10.064;2024-03-22T00:14:29;22.57;;;13.47;;
3274;SDS011;1649;53.672;10.064;2024-03-22T00:16:54;24.63;;;12.30;;
3274;SDS011;1649;53.672;10.064;2024-03-22T00:19:20;24.40;;;13.20;;
3274;SDS011;1649;53.672;10.064;2024-03-22T00:21:45;25.80;;;13.30;;
3274;SDS011;1649;53.672;10.064;2024-03-22T00:24:11;23.70;;;14.20;;
3274;SDS011;1649;53.672;10.064;2024-03-22T00:26:36;25.80;;;12.53;;
3274;SDS011;1649;53.672;10.064;2024-03-22T00:29:02;26.20;;;13.90;;
3274;SDS011;1649;53.672;10.064;2024-03-22T00:31:27;24.80;;;12.17;;
3274;SDS011;1649;53.672;10.064;2024-03-22T00:33:53;26.43;;;14.50;;
3274;SDS011;1649;53.672;10.064;2024-03-22T00:36:18;27.13;;;15.50;;
3274;SDS011;1649;53.672;10.064;2024-03-22T00:38:44;23.63;;;13.43;;
3274;SDS011;1649;53.672;10.064;2024-03-22T00:41:09;23.27;;;12.13;;
3274;SDS011;1649;53.672;10.064;2024-03-22T00:43:35;25.77;;;13.47;;
3274;SDS011;1649;53.672;10.064;2024-03-22T00:46:00;23.97;;;13.60;;
3274;SDS011;1649;53.672;10.064;2024-03-22T00:48:27;23.47;;;13.20;;
3274;SDS011;1649;53.672;10.064;2024-03-22T00:50:53;24.07;;;13.70;;
3274;SDS011;1649;53.672;10.064;2024-03-22T00:53:18;26.67;;;13.23;;
3274;SDS011;1649;53.672;10.064;2024-03-22T00:55:44;28.07;;;14.30;;
3274;SDS011;1649;53.672;10.064;2024-03-22T00:58:11;25.80;;;14.03;;
3274;SDS011;1649;53.672;10.064;2024-03-22T01:00:36;24.07;;;13.57;;
3274;SDS011;1649;53.672;10.064;2024-03-22T01:03:03;29.63;;;13.77;;
3274;SDS011;1649;53.672;10.064;2024-03-22T01:05:28;22.33;;;12.73;;
3274;SDS011;1649;53.672;10.064;2024-03-22T01:07:54;29.03;;;14.60;;
3274;SDS011;1649;53.672;10.064;2024-03-22T01:10:19;29.00;;;13.97;;
3274;SDS011;1649;53.672;10.064;2024-03-22T01:12:44;28.63;;;13.37;;
3274;SDS011;1649;53.672;10.064;2024-03-22T01:15:10;28.07;;;13.30;;
3274;SDS011;1649;53.672;10.064;2024-03-22T01:17:35;30.33;;;14.67;;
3274;SDS011;1649;53.672;10.064;2024-03-22T01:20:01;27.60;;;14.23;;
3274;SDS011;1649;53.672;10.064;2024-03-22T01:22:27;24.20;;;13.60;;
3274;SDS011;1649;53.672;10.064;2024-03-22T01:24:52;27.00;;;14.67;;
3274;SDS011;1649;53.672;10.064;2024-03-22T01:27:18;22.60;;;13.50;;
3274;SDS011;1649;53.672;10.064;2024-03-22T01:29:45;24.70;;;13.93;;
3274;SDS011;1649;53.672;10.064;2024-03-22T01:32:12;28.67;;;15.33;;
3274;SDS011;1649;53.672;10.064;2024-03-22T01:34:37;26.87;;;14.60;;
3274;SDS011;1649;53.672;10.064;2024-03-22T01:37:03;31.00;;;15.53;;
3274;SDS011;1649;53.672;10.064;2024-03-22T01:39:28;27.30;;;15.10;;
3274;SDS011;1649;53.672;10.064;2024-03-22T01:41:54;25.90;;;14.97;;
3274;SDS011;1649;53.672;10.064;2024-03-22T01:44:26;27.47;;;15.30;;
3274;SDS011;1649;53.672;10.064;2024-03-22T01:46:52;26.70;;;13.00;;
3274;SDS011;1649;53.672;10.064;2024-03-22T01:49:18;29.43;;;14.63;;
3274;SDS011;1649;53.672;10.064;2024-03-22T01:51:44;28.20;;;14.30;;
3274;SDS011;1649;53.672;10.064;2024-03-22T01:54:09;28.10;;;14.33;;
3274;SDS011;1649;53.672;10.064;2024-03-22T01:56:38;25.00;;;14.00;;
3274;SDS011;1649;53.672;10.064;2024-03-22T01:59:04;33.60;;;15.20;;
3274;SDS011;1649;53.672;10.064;2024-03-22T02:01:30;25.60;;;13.83;;
3274;SDS011;1649;53.672;10.064;2024-03-22T02:03:57;32.60;;;15.20;;
3274;SDS011;1649;53.672;10.064;2024-03-22T02:06:23;25.63;;;14.60;;
3274;SDS011;1649;53.672;10.064;2024-03-22T02:08:49;29.27;;;15.17;;
3274;SDS011;1649;53.672;10.064;2024-03-22T02:11:14;27.27;;;15.20;;
3274;SDS011;1649;53.672;10.064;2024-03-22T02:13:40;31.50;;;15.13;;
3274;SDS011;1649;53.672;10.064;2024-03-22T02:16:05;28.90;;;16.50;;
3274;SDS011;1649;53.672;10.064;2024-03-22T02:18:31;27.23;;;15.40;;
3274;SDS011;1649;53.672;10.064;2024-03-22T02:20:57;31.23;;;16.77;;
3274;SDS011;1649;53.672;10.064;2024-03-22T02:23:43;28.40;;;15.10;;
3274;SDS011;1649;53.672;10.064;2024-03-22T02:26:08;32.63;;;17.60;;
3274;SDS011;1649;53.672;10.064;2024-03-22T02:28:34;30.60;;;16.03;;
3274;SDS011;1649;53.672;10.064;2024-03-22T02:31:00;34.90;;;17.33;;
3274;SDS011;1649;53.672;10.064;2024-03-22T02:33:29;30.27;;;17.93;;
3274;SDS011;1649;53.672;10.064;2024-03-22T02:35:55;31.13;;;16.87;;
3274;SDS011;1649;53.672;10.064;2024-03-22T02:38:21;28.60;;;16.27;;
3274;SDS011;1649;53.672;10.064;2024-03-22T02:40:47;30.83;;;16.30;;
3274;SDS011;1649;53.672;10.064;2024-03-22T02:43:13;33.33;;;17.87;;
3274;SDS011;1649;53.672;10.064;2024-03-22T02:45:39;30.17;;;16.60;;
3274;SDS011;1649;53.672;10.064;2024-03-22T02:48:05;34.57;;;17.33;;
3274;SDS011;1649;53.672;10.064;2024-03-22T02:50:34;31.70;;;18.33;;
3274;SDS011;1649;53.672;10.064;2024-03-22T02:53:00;32.80;;;17.40;;
3274;SDS011;1649;53.672;10.064;2024-03-22T02:55:26;35.57;;;18.67;;
3274;SDS011;1649;53.672;10.064;2024-03-22T02:57:51;34.20;;;17.17;;
3274;SDS011;1649;53.672;10.064;2024-03-22T03:00:17;39.30;;;19.60;;
3274;SDS011;1649;53.672;10.064;2024-03-22T03:02:43;30.50;;;16.43;;
3274;SDS011;1649;53.672;10.064;2024-03-22T03:05:09;36.63;;;18.13;;
3274;SDS011;1649;53.672;10.064;2024-03-22T03:07:35;38.30;;;19.63;;
3274;SDS011;1649;53.672;10.064;2024-03-22T03:10:01;30.47;;;16.53;;
3274;SDS011;1649;53.672;10.064;2024-03-22T03:12:26;35.20;;;18.43;;
3274;SDS011;1649;53.672;10.064;2024-03-22T03:14:52;37.63;;;20.70;;
3274;SDS011;1649;53.672;10.064;2024-03-22T03:17:17;32.93;;;19.37;;
3274;SDS011;1649;53.672;10.064;2024-03-22T03:19:43;46.43;;;22.53;;
3274;SDS011;1649;53.672;10.064;2024-03-22T03:22:09;34.20;;;20.63;;
3274;SDS011;1649;53.672;10.064;2024-03-22T03:24:34;37.27;;;19.80;;
3274;SDS011;1649;53.672;10.064;2024-03-22T03:27:00;40.37;;;21.20;;
3274;SDS011;1649;53.672;10.064;2024-03-22T03:29:25;37.93;;;20.80;;
3274;SDS011;1649;53.672;10.064;2024-03-22T03:31:51;43.30;;;21.23;;
3274;SDS011;1649;53.672;10.064;2024-03-22T03:34:16;40.87;;;21.93;;
3274;SDS011;1649;53.672;10.064;2024-03-22T03:36:42;39.47;;;22.53;;
3274;SDS011;1649;53.672;10.064;2024-03-22T03:39:07;43.70;;;22.23;;
3274;SDS011;1649;53.672;10.064;2024-03-22T03:41:33;40.20;;;22.40;;
3274;SDS011;1649;53.672;10.064;2024-03-22T03:43:59;43.80;;;21.93;;
3274;SDS011;1649;53.672;10.064;2024-03-22T03:46:24;43.00;;;22.03;;
3274;SDS011;1649;53.672;10.064;2024-03-22T03:48:50;39.57;;;21.70;;
3274;SDS011;1649;53.672;10.064;2024-03-22T03:51:15;44.20;;;22.93;;
3274;SDS011;1649;53.672;10.064;2024-03-22T03:53:41;41.47;;;22.47;;
3274;SDS011;1649;53.672;10.064;2024-03-22T03:56:06;44.00;;;22.80;;
3274;SDS011;1649;53.672;10.064;2024-03-22T03:58:32;43.60;;;22.30;;
3274;SDS011;1649;53.672;10.064;2024-03-22T04:00:57;47.50;;;24.10;;
3274;SDS011;1649;53.672;10.064;2024-03-22T04:03:23;43.30;;;23.40;;
3274;SDS011;1649;53.672;10.064;2024-03-22T04:05:57;41.10;;;24.10;;
3274;SDS011;1649;53.672;10.064;2024-03-22T04:08:26;49.10;;;24.70;;
3274;SDS011;1649;53.672;10.064;2024-03-22T04:10:55;43.73;;;22.70;;
3274;SDS011;1649;53.672;10.064;2024-03-22T04:13:22;47.50;;;23.07;;
3274;SDS011;1649;53.672;10.064;2024-03-22T04:15:48;43.40;;;22.90;;
3274;SDS011;1649;53.672;10.064;2024-03-22T04:18:14;43.40;;;24.43;;
3274;SDS011;1649;53.672;10.064;2024-03-22T04:20:39;47.67;;;24.63;;
3274;SDS011;1649;53.672;10.064;2024-03-22T04:23:04;45.30;;;24.27;;
3274;SDS011;1649;53.672;10.064;2024-03-22T04:25:30;47.43;;;25.20;;
3274;SDS011;1649;53.672;10.064;2024-03-22T04:27:55;50.53;;;24.10;;
3274;SDS011;1649;53.672;10.064;2024-03-22T04:30:21;48.10;;;26.37;;
3274;SDS011;1649;53.672;10.064;2024-03-22T04:32:46;52.67;;;28.23;;
3274;SDS011;1649;53.672;10.064;2024-03-22T04:35:12;47.50;;;22.30;;
3274;SDS011;1649;53.672;10.064;2024-03-22T04:37:38;55.57;;;28.17;;
3274;SDS011;1649;53.672;10.064;2024-03-22T04:40:03;48.90;;;25.93;;
3274;SDS011;1649;53.672;10.064;2024-03-22T04:42:29;53.03;;;26.70;;
3274;SDS011;1649;53.672;10.064;2024-03-22T04:44:55;51.20;;;26.47;;
3274;SDS011;1649;53.672;10.064;2024-03-22T04:47:20;53.50;;;26.83;;
3274;SDS011;1649;53.672;10.064;2024-03-22T04:49:46;51.83;;;26.87;;
3274;SDS011;1649;53.672;10.064;2024-03-22T04:52:11;49.73;;;25.80;;
3274;SDS011;1649;53.672;10.064;2024-03-22T04:54:37;54.63;;;28.67;;
3274;SDS011;1649;53.672;10.064;2024-03-22T04:57:02;57.43;;;27.20;;
3274;SDS011;1649;53.672;10.064;2024-03-22T04:59:28;57.30;;;29.50;;
3274;SDS011;1649;53.672;10.064;2024-03-22T05:01:53;55.50;;;29.33;;
3274;SDS011;1649;53.672;10.064;2024-03-22T05:04:19;49.83;;;27.10;;
3274;SDS011;1649;53.672;10.064;2024-03-22T05:06:44;54.70;;;28.87;;
3274;SDS011;1649;53.672;10.064;2024-03-22T05:09:10;56.77;;;27.73;;
3274;SDS011;1649;53.672;10.064;2024-03-22T05:11:35;53.67;;;29.13;;
3274;SDS011;1649;53.672;10.064;2024-03-22T05:14:01;54.83;;;29.10;;
3274;SDS011;1649;53.672;10.064;2024-03-22T05:16:27;53.27;;;27.47;;
3274;SDS011;1649;53.672;10.064;2024-03-22T05:18:52;54.97;;;27.90;;
3274;SDS011;1649;53.672;10.064;2024-03-22T05:21:18;55.00;;;28.17;;
3274;SDS011;1649;53.672;10.064;2024-03-22T05:23:43;53.40;;;27.80;;
3274;SDS011;1649;53.672;10.064;2024-03-22T05:26:09;51.13;;;27.20;;
3274;SDS011;1649;53.672;10.064;2024-03-22T05:28:35;57.67;;;29.03;;
3274;SDS011;1649;53.672;10.064;2024-03-22T05:31:00;54.20;;;28.57;;
3274;SDS011;1649;53.672;10.064;2024-03-22T05:33:26;68.00;;;31.10;;
3274;SDS011;1649;53.672;10.064;2024-03-22T05:35:52;60.93;;;29.80;;
3274;SDS011;1649;53.672;10.064;2024-03-22T05:38:17;57.17;;;29.00;;
3274;SDS011;1649;53.672;10.064;2024-03-22T05:40:43;55.53;;;28.27;;
3274;SDS011;1649;53.672;10.064;2024-03-22T05:43:11;54.60;;;29.50;;
3274;SDS011;1649;53.672;10.064;2024-03-22T05:45:36;59.83;;;30.40;;
3274;SDS011;1649;53.672;10.064;2024-03-22T05:48:02;59.50;;;29.30;;
3274;SDS011;1649;53.672;10.064;2024-03-22T05:50:27;57.40;;;30.30;;
3274;SDS011;1649;53.672;10.064;2024-03-22T05:52:53;61.53;;;31.10;;
3274;SDS011;1649;53.672;10.064;2024-03-22T05:55:18;58.77;;;29.60;;
3274;SDS011;1649;53.672;10.064;2024-03-22T05:57:44;56.37;;;28.97;;
3274;SDS011;1649;53.672;10.064;2024-03-22T06:00:09;64.70;;;31.20;;
3274;SDS011;1649;53.672;10.064;2024-03-22T06:02:36;62.23;;;30.73;;
3274;SDS011;1649;53.672;10.064;2024-03-22T06:05:01;64.93;;;31.07;;
3274;SDS011;1649;53.672;10.064;2024-03-22T06:07:27;59.90;;;29.77;;
3274;SDS011;1649;53.672;10.064;2024-03-22T06:09:53;59.30;;;30.13;;
3274;SDS011;1649;53.672;10.064;2024-03-22T06:12:18;61.97;;;29.20;;
3274;SDS011;1649;53.672;10.064;2024-03-22T06:14:44;58.10;;;30.40;;
3274;SDS011;1649;53.672;10.064;2024-03-22T06:17:11;62.83;;;32.27;;
3274;SDS011;1649;53.672;10.064;2024-03-22T06:19:37;59.40;;;33.60;;
3274;SDS011;1649;53.672;10.064;2024-03-22T06:22:03;60.07;;;31.47;;
3274;SDS011;1649;53.672;10.064;2024-03-22T06:24:28;65.00;;;31.63;;
3274;SDS011;1649;53.672;10.064;2024-03-22T06:26:54;64.90;;;32.70;;
3274;SDS011;1649;53.672;10.064;2024-03-22T06:29:20;65.43;;;33.53;;
3274;SDS011;1649;53.672;10.064;2024-03-22T06:31:46;64.30;;;31.60;;
3274;SDS011;1649;53.672;10.064;2024-03-22T06:34:12;60.37;;;30.80;;
3274;SDS011;1649;53.672;10.064;2024-03-22T06:36:37;71.00;;;32.93;;
3274;SDS011;1649;53.672;10.064;2024-03-22T06:39:03;66.50;;;32.50;;
3274;SDS011;1649;53.672;10.064;2024-03-22T06:41:32;67.37;;;32.27;;
3274;SDS011;1649;53.672;10.064;2024-03-22T06:43:59;70.80;;;33.00;;
3274;SDS011;1649;53.672;10.064;2024-03-22T06:46:24;59.43;;;30.30;;
3274;SDS011;1649;53.672;10.064;2024-03-22T06:48:50;64.50;;;33.03;;
3274;SDS011;1649;53.672;10.064;2024-03-22T06:51:15;66.43;;;32.90;;
3274;SDS011;1649;53.672;10.064;2024-03-22T06:53:41;71.60;;;34.67;;
3274;SDS011;1649;53.672;10.064;2024-03-22T06:56:06;64.37;;;32.47;;
3274;SDS011;1649;53.672;10.064;2024-03-22T06:58:34;63.43;;;32.03;;
3274;SDS011;1649;53.672;10.064;2024-03-22T07:01:06;57.67;;;30.90;;
3274;SDS011;1649;53.672;10.064;2024-03-22T07:03:31;58.77;;;32.20;;
3274;SDS011;1649;53.672;10.064;2024-03-22T07:05:57;65.10;;;32.30;;
3274;SDS011;1649;53.672;10.064;2024-03-22T07:08:22;66.73;;;31.40;;
3274;SDS011;1649;53.672;10.064;2024-03-22T07:10:49;69.90;;;32.17;;
3274;SDS011;1649;53.672;10.064;2024-03-22T07:13:15;67.47;;;33.03;;
3274;SDS011;1649;53.672;10.064;2024-03-22T07:15:40;62.70;;;31.57;;
3274;SDS011;1649;53.672;10.064;2024-03-22T07:18:06;69.10;;;32.20;;
3274;SDS011;1649;53.672;10.064;2024-03-22T07:20:31;69.67;;;34.83;;
3274;SDS011;1649;53.672;10.064;2024-03-22T07:22:57;64.03;;;32.00;;
3274;SDS011;1649;53.672;10.064;2024-03-22T07:25:22;57.73;;;30.40;;
3274;SDS011;1649;53.672;10.064;2024-03-22T07:27:48;65.80;;;32.97;;
3274;SDS011;1649;53.672;10.064;2024-03-22T07:30:14;66.83;;;33.10;;
3274;SDS011;1649;53.672;10.064;2024-03-22T07:32:40;57.37;;;31.63;;
3274;SDS011;1649;53.672;10.064;2024-03-22T07:35:05;60.30;;;32.03;;
3274;SDS011;1649;53.672;10.064;2024-03-22T07:37:32;56.80;;;30.00;;
3274;SDS011;1649;53.672;10.064;2024-03-22T07:39:59;59.60;;;30.20;;
3274;SDS011;1649;53.672;10.064;2024-03-22T07:42:24;57.87;;;30.17;;
3274;SDS011;1649;53.672;10.064;2024-03-22T07:44:50;60.27;;;31.87;;
3274;SDS011;1649;53.672;10.064;2024-03-22T07:47:15;65.67;;;33.10;;
3274;SDS011;1649;53.672;10.064;2024-03-22T07:49:41;67.17;;;31.73;;
3274;SDS011;1649;53.672;10.064;2024-03-22T07:52:06;62.40;;;31.73;;
3274;SDS011;1649;53.672;10.064;2024-03-22T07:54:32;57.90;;;31.80;;
3274;SDS011;1649;53.672;10.064;2024-03-22T07:56:57;64.53;;;32.43;;
3274;SDS011;1649;53.672;10.064;2024-03-22T07:59:23;64.47;;;32.77;;
3274;SDS011;1649;53.672;10.064;2024-03-22T08:01:48;60.10;;;31.70;;
3274;SDS011;1649;53.672;10.064;2024-03-22T08:04:14;69.80;;;34.97;;
3274;SDS011;1649;53.672;10.064;2024-03-22T08:06:39;64.23;;;33.93;;
3274;SDS011;1649;53.672;10.064;2024-03-22T08:09:05;65.00;;;32.23;;
3274;SDS011;1649;53.672;10.064;2024-03-22T08:11:30;65.27;;;33.17;;
3274;SDS011;1649;53.672;10.064;2024-03-22T08:13:56;59.10;;;30.27;;
3274;SDS011;1649;53.672;10.064;2024-03-22T08:16:27;67.97;;;34.10;;
3274;SDS011;1649;53.672;10.064;2024-03-22T08:18:53;69.13;;;34.43;;
3274;SDS011;1649;53.672;10.064;2024-03-22T08:21:18;66.23;;;32.70;;
3274;SDS011;1649;53.672;10.064;2024-03-22T08:23:44;73.43;;;35.80;;
3274;SDS011;1649;53.672;10.064;2024-03-22T08:26:10;66.83;;;34.13;;
3274;SDS011;1649;53.672;10.064;2024-03-22T08:28:35;66.83;;;34.80;;
3274;SDS011;1649;53.672;10.064;2024-03-22T08:31:04;73.60;;;36.30;;
3274;SDS011;1649;53.672;10.064;2024-03-22T08:33:30;81.97;;;37.37;;
3274;SDS011;1649;53.672;10.064;2024-03-22T08:35:56;80.27;;;38.43;;
3274;SDS011;1649;53.672;10.064;2024-03-22T08:38:21;72.57;;;35.77;;
3274;SDS011;1649;53.672;10.064;2024-03-22T08:40:48;70.70;;;35.60;;
3274;SDS011;1649;53.672;10.064;2024-03-22T08:43:14;82.43;;;37.90;;
3274;SDS011;1649;53.672;10.064;2024-03-22T08:45:40;78.93;;;37.00;;
3274;SDS011;1649;53.672;10.064;2024-03-22T08:48:05;76.00;;;36.97;;
3274;SDS011;1649;53.672;10.064;2024-03-22T08:50:32;76.17;;;37.90;;
3274;SDS011;1649;53.672;10.064;2024-03-22T08:52:57;75.50;;;35.53;;
3274;SDS011;1649;53.672;10.064;2024-03-22T08:55:23;77.70;;;35.00;;
3274;SDS011;1649;53.672;10.064;2024-03-22T08:57:48;76.67;;;38.10;;
3274;SDS011;1649;53.672;10.064;2024-03-22T09:00:14;82.70;;;37.00;;
3274;SDS011;1649;53.672;10.064;2024-03-22T09:02:39;74.43;;;36.17;;
3274;SDS011;1649;53.672;10.064;2024-03-22T09:05:05;93.40;;;40.43;;
3274;SDS011;1649;53.672;10.064;2024-03-22T09:07:31;81.27;;;38.53;;
3274;SDS011;1649;53.672;10.064;2024-03-22T09:09:57;81.80;;;37.33;;
3274;SDS011;1649;53.672;10.064;2024-03-22T09:12:22;82.90;;;38.07;;
3274;SDS011;1649;53.672;10.064;2024-03-22T09:14:48;77.43;;;36.70;;
3274;SDS011;1649;53.672;10.064;2024-03-22T09:17:13;86.07;;;41.63;;
3274;SDS011;1649;53.672;10.064;2024-03-22T09:19:39;81.93;;;37.10;;
3274;SDS011;1649;53.672;10.064;2024-03-22T09:22:04;87.07;;;38.30;;
3274;SDS011;1649;53.672;10.064;2024-03-22T09:24:30;84.67;;;39.07;;
3274;SDS011;1649;53.672;10.064;2024-03-22T09:26:56;82.63;;;38.70;;
3274;SDS011;1649;53.672;10.064;2024-03-22T09:29:21;86.83;;;39.07;;
3274;SDS011;1649;53.672;10.064;2024-03-22T09:31:47;82.67;;;37.60;;
3274;SDS011;1649;53.672;10.064;2024-03-22T09:34:12;84.17;;;38.13;;
3274;SDS011;1649;53.672;10.064;2024-03-22T09:36:38;91.70;;;38.47;;
3274;SDS011;1649;53.672;10.064;2024-03-22T09:39:03;75.47;;;37.53;;
3274;SDS011;1649;53.672;10.064;2024-03-22T09:41:30;81.03;;;38.47;;
3274;SDS011;1649;53.672;10.064;2024-03-22T09:43:57;76.60;;;38.07;;
3274;SDS011;1649;53.672;10.064;2024-03-22T09:46:25;88.27;;;38.80;;
3274;SDS011;1649;53.672;10.064;2024-03-22T09:48:51;73.13;;;34.33;;
3274;SDS011;1649;53.672;10.064;2024-03-22T09:51:18;75.77;;;36.60;;
3274;SDS011;1649;53.672;10.064;2024-03-22T09:53:44;87.70;;;37.77;;
3274;SDS011;1649;53.672;10.064;2024-03-22T09:56:11;77.77;;;35.70;;
3274;SDS011;1649;53.672;10.064;2024-03-22T09:58:40;73.67;;;34.27;;
3274;SDS011;1649;53.672;10.064;2024-03-22T10:01:06;75.63;;;36.43;;
3274;SDS011;1649;53.672;10.064;2024-03-22T10:03:32;83.13;;;36.37;;
3274;SDS011;1649;53.672;10.064;2024-03-22T10:05:58;74.00;;;34.57;;
3274;SDS011;1649;53.672;10.064;2024-03-22T10:08:24;73.37;;;35.10;;
3274;SDS011;1649;53.672;10.064;2024-03-22T10:10:49;75.53;;;33.93;;
3274;SDS011;1649;53.672;10.064;2024-03-22T10:13:14;73.00;;;34.93;;
3274;SDS011;1649;53.672;10.064;2024-03-22T10:15:40;75.93;;;34.60;;
3274;SDS011;1649;53.672;10.064;2024-03-22T10:18:05;73.73;;;33.77;;
3274;SDS011;1649;53.672;10.064;2024-03-22T10:20:31;65.33;;;31.90;;
3274;SDS011;1649;53.672;10.064;2024-03-22T10:22:58;71.83;;;34.20;;
3274;SDS011;1649;53.672;10.064;2024-03-22T10:25:27;65.67;;;31.70;;
3274;SDS011;1649;53.672;10.064;2024-03-22T10:27:53;65.87;;;31.17;;
3274;SDS011;1649;53.672;10.064;2024-03-22T10:30:19;72.37;;;33.47;;
3274;SDS011;1649;53.672;10.064;2024-03-22T10:32:46;64.10;;;31.53;;
3274;SDS011;1649;53.672;10.064;2024-03-22T10:35:13;58.77;;;30.93;;
3274;SDS011;1649;53.672;10.064;2024-03-22T10:37:39;70.70;;;31.53;;
3274;SDS011;1649;53.672;10.064;2024-03-22T10:40:05;68.53;;;29.80;;
3274;SDS011;1649;53.672;10.064;2024-03-22T10:42:34;66.80;;;29.20;;
3274;SDS011;1649;53.672;10.064;2024-03-22T10:45:01;61.47;;;28.50;;
3274;SDS011;1649;53.672;10.064;2024-03-22T10:47:31;57.63;;;27.30;;
3274;SDS011;1649;53.672;10.064;2024-03-22T10:50:03;52.90;;;25.00;;
3274;SDS011;1649;53.672;10.064;2024-03-22T10:55:13;43.77;;;23.20;;
3274;SDS011;1649;53.672;10.064;2024-03-22T10:57:46;45.13;;;22.47;;
3274;SDS011;1649;53.672;10.064;2024-03-22T11:00:12;48.67;;;23.10;;
3274;SDS011;1649;53.672;10.064;2024-03-22T11:02:43;52.17;;;24.47;;
3274;SDS011;1649;53.672;10.064;2024-03-22T11:05:17;40.50;;;21.00;;
3274;SDS011;1649;53.672;10.064;2024-03-22T11:07:43;37.47;;;19.60;;
3274;SDS011;1649;53.672;10.064;2024-03-22T11:10:11;37.50;;;19.37;;
3274;SDS011;1649;53.672;10.064;2024-03-22T11:12:37;42.60;;;20.30;;
3274;SDS011;1649;53.672;10.064;2024-03-22T11:15:04;36.87;;;18.60;;
3274;SDS011;1649;53.672;10.064;2024-03-22T11:17:30;31.60;;;17.90;;
3274;SDS011;1649;53.672;10.064;2024-03-22T11:19:56;38.53;;;17.87;;
3274;SDS011;1649;53.672;10.064;2024-03-22T11:22:21;31.47;;;17.40;;
3274;SDS011;1649;53.672;10.064;2024-03-22T11:24:47;33.13;;;15.23;;
3274;SDS011;1649;53.672;10.064;2024-03-22T11:27:13;30.53;;;14.40;;
3274;SDS011;1649;53.672;10.064;2024-03-22T11:29:39;28.87;;;14.70;;
3274;SDS011;1649;53.672;10.064;2024-03-22T11:32:06;27.53;;;14.43;;
3274;SDS011;1649;53.672;10.064;2024-03-22T11:34:34;25.07;;;14.00;;
3274;SDS011;1649;53.672;10.064;2024-03-22T11:37:03;25.53;;;14.20;;
3274;SDS011;1649;53.672;10.064;2024-03-22T11:39:31;23.90;;;13.40;;
3274;SDS011;1649;53.672;10.064;2024-03-22T11:41:57;25.37;;;13.40;;
3274;SDS011;1649;53.672;10.064;2024-03-22T11:44:23;25.33;;;12.53;;
3274;SDS011;1649;53.672;10.064;2024-03-22T11:46:50;25.10;;;12.70;;
3274;SDS011;1649;53.672;10.064;2024-03-22T11:49:17;26.10;;;12.73;;
3274;SDS011;1649;53.672;10.064;2024-03-22T11:51:44;22.80;;;12.90;;
3274;SDS011;1649;53.672;10.064;2024-03-22T11:54:10;25.60;;;11.70;;
3274;SDS011;1649;53.672;10.064;2024-03-22T11:56:35;23.40;;;11.90;;
3274;SDS011;1649;53.672;10.064;2024-03-22T11:59:01;22.77;;;11.20;;
3274;SDS011;1649;53.672;10.064;2024-03-22T12:01:28;21.33;;;11.90;;
3274;SDS011;1649;53.672;10.064;2024-03-22T12:03:54;21.83;;;11.07;;
3274;SDS011;1649;53.672;10.064;2024-03-22T12:06:21;19.87;;;11.13;;
3274;SDS011;1649;53.672;10.064;2024-03-22T12:08:46;19.80;;;12.47;;
3274;SDS011;1649;53.672;10.064;2024-03-22T12:11:12;20.37;;;10.33;;
3274;SDS011;1649;53.672;10.064;2024-03-22T12:13:39;20.53;;;11.90;;
3274;SDS011;1649;53.672;10.064;2024-03-22T12:16:05;16.47;;;9.83;;
3274;SDS011;1649;53.672;10.064;2024-03-22T12:18:32;16.20;;;9.90;;
3274;SDS011;1649;53.672;10.064;2024-03-22T12:20:58;20.80;;;9.87;;
3274;SDS011;1649;53.672;10.064;2024-03-22T12:23:23;18.33;;;10.40;;
3274;SDS011;1649;53.672;10.064;2024-03-22T12:25:49;18.07;;;9.47;;
3274;SDS011;1649;53.672;10.064;2024-03-22T12:28:16;19.77;;;10.07;;
3274;SDS011;1649;53.672;10.064;2024-03-22T12:30:42;19.17;;;11.27;;
3274;SDS011;1649;53.672;10.064;2024-03-22T12:33:08;20.07;;;10.33;;
3274;SDS011;1649;53.672;10.064;2024-03-22T12:35:35;18.20;;;9.37;;
3274;SDS011;1649;53.672;10.064;2024-03-22T12:38:05;14.50;;;8.40;;
3274;SDS011;1649;53.672;10.064;2024-03-22T12:40:30;10.30;;;5.93;;
3274;SDS011;1649;53.672;10.064;2024-03-22T12:42:57;8.70;;;4.43;;
3274;SDS011;1649;53.672;10.064;2024-03-22T12:45:23;8.10;;;4.43;;
3274;SDS011;1649;53.672;10.064;2024-03-22T12:47:49;7.27;;;3.67;;
3274;SDS011;1649;53.672;10.064;2024-03-22T12:50:14;8.00;;;4.13;;
3274;SDS011;1649;53.672;10.064;2024-03-22T12:52:40;6.10;;;3.53;;
3274;SDS011;1649;53.672;10.064;2024-03-22T12:55:05;6.07;;;3.40;;
3274;SDS011;1649;53.672;10.064;2024-03-22T12:57:31;5.60;;;2.97;;
3274;SDS011;1649;53.672;10.064;2024-03-22T12:59:57;8.23;;;3.20;;
3274;SDS011;1649;53.672;10.064;2024-03-22T13:02:23;5.80;;;3.07;;
3274;SDS011;1649;53.672;10.064;2024-03-22T13:04:51;5.90;;;3.23;;
3274;SDS011;1649;53.672;10.064;2024-03-22T13:07:18;6.13;;;3.20;;
3274;SDS011;1649;53.672;10.064;2024-03-22T13:09:44;5.40;;;2.90;;
3274;SDS011;1649;53.672;10.064;2024-03-22T13:12:09;5.27;;;3.00;;
3274;SDS011;1649;53.672;10.064;2024-03-22T13:14:35;5.37;;;3.40;;
3274;SDS011;1649;53.672;10.064;2024-03-22T13:17:00;6.50;;;3.20;;
3274;SDS011;1649;53.672;10.064;2024-03-22T13:19:26;5.77;;;2.80;;
3274;SDS011;1649;53.672;10.064;2024-03-22T13:21:52;4.90;;;2.60;;
3274;SDS011;1649;53.672;10.064;2024-03-22T13:24:17;5.33;;;2.60;;
3274;SDS011;1649;53.672;10.064;2024-03-22T13:26:43;5.67;;;2.90;;
3274;SDS011;1649;53.672;10.064;2024-03-22T13:29:09;7.07;;;2.70;;
3274;SDS011;1649;53.672;10.064;2024-03-22T13:31:35;5.23;;;2.97;;
3274;SDS011;1649;53.672;10.064;2024-03-22T13:34:00;5.17;;;2.70;;
3274;SDS011;1649;53.672;10.064;2024-03-22T13:36:25;6.80;;;2.50;;
3274;SDS011;1649;53.672;10.064;2024-03-22T13:38:51;4.60;;;2.67;;
3274;SDS011;1649;53.672;10.064;2024-03-22T13:41:17;5.80;;;2.90;;
3274;SDS011;1649;53.672;10.064;2024-03-22T13:43:42;5.13;;;2.80;;
3274;SDS011;1649;53.672;10.064;2024-03-22T13:46:09;5.07;;;3.00;;
3274;SDS011;1649;53.672;10.064;2024-03-22T13:48:39;5.07;;;2.77;;
3274;SDS011;1649;53.672;10.064;2024-03-22T13:51:05;5.17;;;2.97;;
3274;SDS011;1649;53.672;10.064;2024-03-22T13:53:30;4.73;;;2.50;;
3274;SDS011;1649;53.672;10.064;2024-03-22T13:55:56;4.80;;;2.60;;
3274;SDS011;1649;53.672;10.064;2024-03-22T13:58:21;4.97;;;2.50;;
3274;SDS011;1649;53.672;10.064;2024-03-22T14:00:47;4.40;;;2.37;;
3274;SDS011;1649;53.672;10.064;2024-03-22T14:03:12;9.70;;;2.83;;
3274;SDS011;1649;53.672;10.064;2024-03-22T14:05:38;4.77;;;2.53;;
3274;SDS011;1649;53.672;10.064;2024-03-22T14:08:04;4.47;;;2.43;;
3274;SDS011;1649;53.672;10.064;2024-03-22T14:10:30;4.80;;;2.63;;
3274;SDS011;1649;53.672;10.064;2024-03-22T14:12:58;4.30;;;2.40;;
3274;SDS011;1649;53.672;10.064;2024-03-22T14:15:24;5.03;;;2.77;;
3274;SDS011;1649;53.672;10.064;2024-03-22T14:17:51;4.83;;;2.40;;
3274;SDS011;1649;53.672;10.064;2024-03-22T14:20:17;5.50;;;2.17;;
3274;SDS011;1649;53.672;10.064;2024-03-22T14:22:43;4.40;;;2.20;;
3274;SDS011;1649;53.672;10.064;2024-03-22T14:25:09;6.07;;;2.27;;
3274;SDS011;1649;53.672;10.064;2024-03-22T14:27:35;5.53;;;2.30;;
3274;SDS011;1649;53.672;10.064;2024-03-22T14:30:01;5.27;;;2.53;;
3274;SDS011;1649;53.672;10.064;2024-03-22T14:32:30;7.37;;;3.07;;
3274;SDS011;1649;53.672;10.064;2024-03-22T14:34:59;7.63;;;2.97;;